Home   Weather   India   Gaya   Past weeks
Flag for India

Past Weather in Gaya, Bihar, India — Yesterday and Last 2 Weeks

Currently: 68 °F. Fog. (Weather station: Patna Airport, India). See more current weather

Past Weather in Gaya — Graph

°F

Gaya Temperature Yesterday

Maximum temperature yesterday: 82 °F (at 12:30 pm)
Minimum temperature yesterday: 55 °F (at 1:00 am)
Average temperature yesterday: 71 °F

High & Low Weather Summary for the Past Weeks

 TemperatureHumidityPressure
High82 °F (Jan 24, 1:00 pm)100% (Jan 16, 2:30 am)30.18 "Hg (Jan 16, 2:30 am)
Low45 °F (Jan 17, 4:30 am)26% (Jan 30, 4:30 pm)29.86 "Hg (Jan 23, 4:00 pm)
Average65 °F79%29.99 "Hg
* Reported Jan 15 10:30 pm — Jan 30 11:00 pm, Gaya. Weather by CustomWeather, © 2023

Note: Actual official high and low records may vary slightly from our data, if they occured in-between our weather recording intervals... More about our weather records

Gaya Weather History for the Previous 24 Hours

Scroll right to see more
 ConditionsComfort  
Time TempWeatherWind HumidityBarometerVisibility
11:00 pm
Mon, Jan 30
68 °FFog.5 mph83%30.01 "Hg1 mi
10:30 pm70 °FFog.5 mph78%30.01 "Hg1 mi
9:30 pm70 °FFog.5 mph78%30.01 "Hg1 mi
9:00 pm72 °FPartly cloudy.2 mph73%29.98 "Hg1 mi
8:30 pm72 °FPartly cloudy.3 mph69%29.98 "Hg1 mi
8:00 pm73 °FPartly cloudy.5 mph65%29.98 "Hg1 mi
7:30 pm73 °FPartly cloudy.5 mph65%29.95 "Hg1 mi
7:00 pm73 °FPartly cloudy.2 mph65%29.95 "Hg1 mi
6:30 pm75 °FPartly cloudy.2 mph61%29.95 "Hg1 mi
5:30 pm77 °FScattered clouds.2 mph44%29.95 "Hg1 mi
5:00 pm79 °FScattered clouds.3 mph42%29.95 "Hg1 mi
4:30 pm82 °FScattered clouds.5 mph26%29.92 "Hg1 mi
4:00 pm82 °FScattered clouds.5 mph30%29.92 "Hg1 mi
3:30 pm82 °FHaze.3 mph37%29.95 "Hg1 mi
3:00 pm82 °FHaze.5 mph40%29.95 "Hg1 mi
2:30 pm82 °FHaze.3 mph37%29.95 "Hg1 mi
2:00 pm82 °FHaze.3 mph35%29.98 "Hg1 mi
1:30 pm82 °FHaze.2 mph35%29.98 "Hg1 mi
1:00 pm81 °FHaze.3 mph48%30.01 "Hg1 mi
12:30 pm82 °FScattered clouds.2 mph35%30.01 "Hg1 mi
11:30 am79 °FScattered clouds.3 mph54%30.04 "Hg1 mi
11:00 am77 °FScattered clouds.2 mph61%30.07 "Hg1 mi
10:30 am73 °FScattered clouds.3 mph65%30.07 "Hg1 mi
10:00 am73 °FPartly sunny.No wind65%30.07 "Hg1 mi
9:30 am70 °FFog.2 mph73%30.07 "Hg1 mi
9:00 am68 °FFog.No wind83%30.07 "Hg1 mi
8:30 am64 °FFog.No wind88%30.07 "Hg1 mi
8:00 am63 °FFog.No wind94%30.04 "Hg1 mi
7:30 am61 °FFog.No wind94%30.04 "Hg1 mi
7:00 am57 °FFog.No wind100%30.01 "Hg1 mi
6:30 am59 °FFog.No wind94%30.01 "Hg1 mi
5:00 am55 °FFog.No wind100%29.98 "Hg1 mi
4:30 am55 °FFog.No wind100%29.98 "Hg1 mi
3:30 am55 °FFog.No wind94%29.98 "Hg1 mi
2:00 am55 °FFog.No wind94%29.98 "Hg1 mi
1:00 am55 °FFog.No wind100%29.98 "Hg1 mi
12:30 am57 °FFog.No wind94%29.98 "Hg1 mi
Weather by CustomWeather, © 2023

See weather overview